createdAt,value
2019-05-15T00:04:45.696Z,7.95
2019-05-15T00:09:41.987Z,8.04
2019-05-15T00:14:38.887Z,7.95
2019-05-15T00:19:43.099Z,8.10
2019-05-15T00:24:58.219Z,8.27
2019-05-15T00:30:06.025Z,8.35
2019-05-15T00:35:09.392Z,8.28
2019-05-15T00:40:14.664Z,8.42
2019-05-15T00:45:13.012Z,8.47
2019-05-15T00:50:12.601Z,8.18
2019-05-15T00:55:09.499Z,8.12
2019-05-15T01:00:08.193Z,7.98
2019-05-15T01:05:04.129Z,7.98
2019-05-15T01:10:00.044Z,8.04
2019-05-15T01:14:59.187Z,8.10
2019-05-15T01:19:55.042Z,8.01
2019-05-15T01:24:58.939Z,7.78
2019-05-15T01:29:55.035Z,7.53
2019-05-15T01:34:58.167Z,7.77
2019-05-15T01:39:54.074Z,7.76
2019-05-15T01:50:22.144Z,7.48
2019-05-15T01:55:39.103Z,7.24
2019-05-15T02:00:50.030Z,7.19
2019-05-15T02:05:52.155Z,7.29
2019-05-15T02:11:09.090Z,7.21
2019-05-15T02:16:39.277Z,7.25
2019-05-15T02:21:38.124Z,7.00
2019-05-15T02:26:33.796Z,7.00
2019-05-15T02:32:23.736Z,7.18
2019-05-15T02:38:09.641Z,7.19
2019-05-15T02:43:41.614Z,7.14
2019-05-15T02:48:54.956Z,6.89
2019-05-15T02:54:35.740Z,6.81
2019-05-15T02:59:39.599Z,7.21
2019-05-15T03:04:59.508Z,7.13
2019-05-15T03:10:11.707Z,7.05
2019-05-15T03:21:24.385Z,7.08
2019-05-15T03:27:29.639Z,6.98
2019-05-15T03:33:00.552Z,7.00
2019-05-15T03:37:59.978Z,6.80
2019-05-15T03:43:02.459Z,6.71
2019-05-15T03:48:34.163Z,6.61
2019-05-15T03:53:50.769Z,6.73
2019-05-15T04:00:12.292Z,6.69
2019-05-15T04:05:12.415Z,6.65
2019-05-15T04:10:13.392Z,6.65
2019-05-15T04:15:18.558Z,6.53
2019-05-15T04:20:25.249Z,6.61
2019-05-15T04:25:34.071Z,6.95
2019-05-15T04:30:32.498Z,6.87
2019-05-15T04:36:14.730Z,6.76
2019-05-15T04:53:58.736Z,8.77
2019-05-15T04:58:54.502Z,9.38
2019-05-15T05:03:50.393Z,9.66
2019-05-15T05:08:48.867Z,9.55
2019-05-15T05:13:43.666Z,8.93
2019-05-15T05:18:41.022Z,8.58
2019-05-15T05:23:37.751Z,8.98
2019-05-15T05:28:33.730Z,9.03
2019-05-15T05:33:29.519Z,9.20
2019-05-15T05:38:25.394Z,8.56
2019-05-15T05:43:21.319Z,8.73
2019-05-15T05:48:18.767Z,8.02
2019-05-15T05:53:15.127Z,7.74
2019-05-15T05:58:13.805Z,7.65
2019-05-15T06:03:10.447Z,7.79
2019-05-15T06:08:08.026Z,8.25
2019-05-15T06:13:03.890Z,8.36
2019-05-15T06:17:59.882Z,8.40
2019-05-15T06:22:57.909Z,8.70
2019-05-15T06:27:53.127Z,9.01
2019-05-15T06:33:04.970Z,8.96
2019-05-15T06:37:48.411Z,8.91
2019-05-15T06:42:44.044Z,8.89
2019-05-15T06:47:40.009Z,8.84
2019-05-15T06:52:37.833Z,9.24
2019-05-15T06:57:33.315Z,9.26
2019-05-15T07:02:29.097Z,9.34
2019-05-15T07:07:25.827Z,9.35
2019-05-15T07:12:21.626Z,9.37
2019-05-15T07:17:17.827Z,9.71
2019-05-15T07:22:13.721Z,9.70
2019-05-15T07:27:09.683Z,9.98
2019-05-15T07:32:14.250Z,10.08
2019-05-15T07:37:11.435Z,10.32
2019-05-15T07:42:12.311Z,10.25
2019-05-15T07:47:09.374Z,10.42
2019-05-15T07:52:05.522Z,10.58
2019-05-15T07:57:04.864Z,10.81
2019-05-15T08:02:02.697Z,11.16
2019-05-15T08:06:59.243Z,11.05
2019-05-15T08:12:08.304Z,11.21
2019-05-15T08:17:12.035Z,11.46
2019-05-15T08:22:24.783Z,11.27
2019-05-15T08:27:23.580Z,11.58
2019-05-15T08:32:19.061Z,11.68
2019-05-15T08:37:15.164Z,11.55
2019-05-15T08:42:11.028Z,12.80
2019-05-15T08:47:08.144Z,13.70
2019-05-15T08:52:07.096Z,14.37
2019-05-15T08:57:08.466Z,13.95
2019-05-15T09:02:10.754Z,13.07
2019-05-15T09:07:28.596Z,12.44
2019-05-15T09:12:24.280Z,11.83
2019-05-15T09:17:21.323Z,12.07
2019-05-15T09:22:18.705Z,12.93
2019-05-15T09:27:22.404Z,13.95
2019-05-15T09:32:23.155Z,14.51
2019-05-15T09:37:19.012Z,14.15
2019-05-15T09:42:14.856Z,14.12
2019-05-15T09:47:10.769Z,13.43
2019-05-15T09:52:08.836Z,13.64
2019-05-15T09:57:04.081Z,13.28
2019-05-15T10:02:00.401Z,13.25
2019-05-15T10:06:56.298Z,12.74
2019-05-15T10:11:52.193Z,12.93
2019-05-15T10:16:58.392Z,13.14
2019-05-15T10:22:09.676Z,13.52
2019-05-15T10:27:18.057Z,12.88
2019-05-15T10:32:11.726Z,12.37
2019-05-15T10:37:08.448Z,12.02
2019-05-15T10:42:08.225Z,12.83
2019-05-15T10:47:04.476Z,12.63
2019-05-15T10:52:02.183Z,12.62
2019-05-15T10:57:08.402Z,13.07
2019-05-15T11:02:08.418Z,12.83
2019-05-15T11:07:06.641Z,12.82
2019-05-15T11:12:09.423Z,13.02
2019-05-15T11:17:06.993Z,13.82
2019-05-15T11:22:02.902Z,14.40
2019-05-15T11:26:59.415Z,13.46
2019-05-15T11:31:58.243Z,12.68
2019-05-15T11:36:54.154Z,12.80
2019-05-15T11:41:50.018Z,13.23
2019-05-15T11:46:45.818Z,13.98
2019-05-15T11:51:41.744Z,13.44
2019-05-15T11:56:50.031Z,12.62
2019-05-15T12:01:50.545Z,12.45
2019-05-15T12:06:58.878Z,12.53
2019-05-15T12:11:48.540Z,12.27
2019-05-15T12:17:10.392Z,12.09
2019-05-15T12:21:59.947Z,12.72
2019-05-15T12:32:33.298Z,13.94
2019-05-15T12:38:09.825Z,13.26
2019-05-15T13:03:54.330Z,15.25
2019-05-15T13:08:54.231Z,14.72
2019-05-15T13:13:55.424Z,13.83
2019-05-15T13:18:52.602Z,13.99
2019-05-15T13:23:53.392Z,14.52
2019-05-15T13:29:03.460Z,14.51
2019-05-15T13:34:09.372Z,14.56
2019-05-15T13:39:11.113Z,14.34
2019-05-15T13:44:13.295Z,14.11
2019-05-15T13:49:18.592Z,14.53
2019-05-15T13:54:28.965Z,14.53
2019-05-15T13:59:33.543Z,14.16
2019-05-15T14:04:32.054Z,13.97
2019-05-15T14:09:33.590Z,13.63
2019-05-15T14:14:28.556Z,13.46
2019-05-15T14:19:27.901Z,13.59
2019-05-15T14:24:23.762Z,13.24
2019-05-15T14:29:29.159Z,12.99
2019-05-15T14:34:38.250Z,13.02
2019-05-15T14:39:44.173Z,13.57
2019-05-15T14:44:44.834Z,13.97
2019-05-15T14:49:49.396Z,13.89
2019-05-15T14:54:50.376Z,13.71
2019-05-15T14:59:53.694Z,13.24
2019-05-15T15:05:00.638Z,13.32
2019-05-15T15:10:49.528Z,13.14
2019-05-15T15:15:59.131Z,13.29
2019-05-15T15:21:02.278Z,13.46
2019-05-15T15:26:32.855Z,13.42
2019-05-15T15:31:40.388Z,13.47
2019-05-15T15:36:48.314Z,13.54
2019-05-15T15:41:52.723Z,13.27
2019-05-15T15:47:35.403Z,12.72
2019-05-15T15:52:40.140Z,12.80
2019-05-15T15:58:31.417Z,12.85
2019-05-15T16:04:33.638Z,13.04
2019-05-15T16:15:44.500Z,13.13
2019-05-15T16:33:09.498Z,13.55
2019-05-15T16:38:39.444Z,13.72
2019-05-15T16:43:45.397Z,13.61
2019-05-15T16:49:08.813Z,13.28
2019-05-15T16:54:10.330Z,12.88
2019-05-15T16:59:10.720Z,12.77
2019-05-15T17:04:24.533Z,12.85
2019-05-15T17:09:28.190Z,12.77
2019-05-15T17:14:28.601Z,12.76
2019-05-15T17:19:34.185Z,12.63
2019-05-15T17:24:30.821Z,12.80
2019-05-15T17:29:51.767Z,12.64
2019-05-15T17:35:02.506Z,12.65
2019-05-15T17:40:13.130Z,12.55
2019-05-15T17:45:10.130Z,12.56
2019-05-15T17:50:08.394Z,12.56
2019-05-15T17:55:04.752Z,12.39
2019-05-15T18:00:00.600Z,12.44
2019-05-15T18:04:58.599Z,12.37
2019-05-15T18:09:54.596Z,12.27
2019-05-15T18:14:51.777Z,12.19
2019-05-15T18:19:48.704Z,12.12
2019-05-15T18:24:44.791Z,12.06
2019-05-15T18:29:40.759Z,11.96
2019-05-15T18:34:39.435Z,12.01
2019-05-15T18:39:34.320Z,11.93
2019-05-15T18:44:30.219Z,11.84
2019-05-15T18:49:28.395Z,11.86
2019-05-15T18:54:28.022Z,11.70
2019-05-15T19:00:36.087Z,11.72
2019-05-15T19:06:35.353Z,11.71
2019-05-15T19:11:43.470Z,11.68
2019-05-15T19:18:33.744Z,11.53
2019-05-15T21:53:28.736Z,9.52
2019-05-15T21:58:25.518Z,9.41
2019-05-15T22:03:21.890Z,9.26
2019-05-15T22:08:18.385Z,9.18
2019-05-15T22:13:14.255Z,9.16
2019-05-15T22:18:11.542Z,9.01
2019-05-15T22:23:08.230Z,8.98
2019-05-15T22:28:04.285Z,8.98
2019-05-15T22:32:59.981Z,9.09
2019-05-15T22:37:58.226Z,9.04
2019-05-15T22:42:53.228Z,8.96
2019-05-15T22:47:49.287Z,8.95
2019-05-15T22:52:45.105Z,8.82
2019-05-15T22:57:40.830Z,8.75
2019-05-15T23:02:36.606Z,8.78
2019-05-15T23:07:32.622Z,8.70
2019-05-15T23:12:28.771Z,8.76
2019-05-15T23:17:24.541Z,8.60
2019-05-15T23:22:20.320Z,8.53
2019-05-15T23:27:18.150Z,8.49
2019-05-15T23:32:14.065Z,8.29
2019-05-15T23:37:09.800Z,8.20
2019-05-15T23:42:05.571Z,8.07
2019-05-15T23:47:01.288Z,8.00
2019-05-15T23:51:58.230Z,7.91
2019-05-15T23:56:54.231Z,7.90
